createdAt,value
2018-04-22T00:00:03.191Z,12.13
2018-04-22T00:02:31.532Z,11.43
2018-04-22T00:04:59.852Z,8.87
2018-04-22T00:07:28.195Z,5.60
2018-04-22T00:09:56.512Z,10.07
2018-04-22T00:12:24.860Z,13.97
2018-04-22T00:14:53.185Z,7.00
2018-04-22T00:17:21.524Z,4.90
2018-04-22T00:19:49.896Z,8.10
2018-04-22T00:22:18.193Z,7.73
2018-04-22T00:24:46.511Z,7.60
2018-04-22T00:27:14.849Z,4.83
2018-04-22T00:29:43.173Z,11.43
2018-04-22T00:32:11.517Z,4.70
2018-04-22T00:34:39.852Z,6.87
2018-04-22T00:37:08.184Z,8.63
2018-04-22T00:39:36.504Z,5.70
2018-04-22T00:42:04.853Z,10.10
2018-04-22T00:44:33.181Z,6.60
2018-04-22T00:47:01.528Z,8.60
2018-04-22T00:49:29.865Z,9.13
2018-04-22T00:51:58.205Z,5.30
2018-04-22T00:54:26.535Z,6.65
2018-04-22T00:56:54.893Z,8.88
2018-04-22T00:59:23.233Z,10.15
2018-04-22T01:01:51.581Z,4.27
2018-04-22T01:04:19.910Z,10.27
2018-04-22T01:06:48.261Z,10.70
2018-04-22T01:09:16.601Z,12.45
2018-04-22T01:11:44.957Z,8.27
2018-04-22T01:14:13.289Z,13.15
2018-04-22T01:16:41.636Z,10.00
2018-04-22T01:19:09.981Z,11.00
2018-04-22T01:21:38.328Z,6.20
2018-04-22T01:24:06.661Z,5.45
2018-04-22T01:26:34.993Z,11.75
2018-04-22T01:29:03.344Z,9.13
2018-04-22T01:31:31.677Z,5.50
2018-04-22T01:34:00.025Z,6.30
2018-04-22T01:36:28.353Z,5.75
2018-04-22T01:38:56.701Z,8.70
2018-04-22T01:41:25.038Z,4.53
2018-04-22T01:43:53.388Z,11.93
2018-04-22T01:46:21.727Z,8.40
2018-04-22T01:48:50.082Z,7.93
2018-04-22T01:51:18.413Z,14.32
2018-04-22T01:53:46.774Z,12.90
2018-04-22T01:56:15.114Z,10.13
2018-04-22T01:58:43.472Z,9.10
2018-04-22T02:01:11.804Z,16.35
2018-04-22T02:03:40.149Z,8.20
2018-04-22T02:06:08.492Z,14.85
2018-04-22T02:08:36.837Z,8.17
2018-04-22T02:11:05.168Z,8.98
2018-04-22T02:13:33.529Z,11.45
2018-04-22T02:16:01.865Z,11.88
2018-04-22T02:18:30.220Z,7.05
2018-04-22T02:20:58.553Z,9.07
2018-04-22T02:23:26.907Z,7.85
2018-04-22T02:25:55.231Z,7.82
2018-04-22T02:28:23.588Z,7.62
2018-04-22T02:30:51.918Z,8.25
2018-04-22T02:33:20.265Z,9.50
2018-04-22T02:35:48.592Z,7.75
2018-04-22T02:38:16.943Z,7.30
2018-04-22T02:40:45.277Z,10.75
2018-04-22T02:43:13.625Z,8.00
2018-04-22T02:45:41.953Z,11.50
2018-04-22T02:48:10.311Z,12.68
2018-04-22T02:50:38.652Z,10.27
2018-04-22T02:53:07.003Z,7.10
2018-04-22T02:55:35.328Z,7.60
2018-04-22T02:58:03.686Z,15.63
2018-04-22T03:00:32.014Z,9.50
2018-04-22T03:03:00.361Z,5.32
2018-04-22T03:05:28.685Z,6.03
2018-04-22T03:07:57.045Z,10.00
2018-04-22T03:10:25.364Z,7.12
2018-04-22T03:12:53.711Z,9.48
2018-04-22T03:15:22.042Z,6.32
2018-04-22T03:17:50.392Z,8.15
2018-04-22T03:20:18.716Z,8.07
2018-04-22T03:22:47.067Z,8.55
2018-04-22T03:25:15.392Z,6.45
2018-04-22T03:27:43.721Z,9.90
2018-04-22T03:30:12.073Z,7.97
2018-04-22T03:32:40.404Z,4.85
2018-04-22T03:35:08.760Z,5.80
2018-04-22T03:37:37.984Z,6.03
2018-04-22T03:40:06.333Z,9.93
2018-04-22T03:42:34.701Z,6.07
2018-04-22T03:45:03.007Z,6.62
2018-04-22T03:47:31.334Z,7.87
2018-04-22T03:49:59.694Z,6.47
2018-04-22T03:52:28.080Z,11.65
2018-04-22T03:54:56.442Z,8.13
2018-04-22T03:57:24.773Z,6.60
2018-04-22T03:59:53.129Z,7.32
2018-04-22T04:02:21.471Z,14.10
2018-04-22T04:04:49.833Z,13.15
2018-04-22T04:07:18.170Z,5.35
2018-04-22T04:09:46.521Z,8.50
2018-04-22T04:12:14.844Z,7.85
2018-04-22T04:14:43.201Z,15.48
2018-04-22T04:17:11.528Z,7.35
2018-04-22T04:19:51.569Z,7.47
2018-04-22T04:22:31.684Z,7.03
2018-04-22T04:28:02.889Z,6.20
2018-04-22T04:30:31.232Z,4.65
2018-04-22T04:32:59.565Z,7.93
2018-04-22T04:35:27.913Z,7.97
2018-04-22T04:37:56.245Z,12.63
2018-04-22T04:40:24.593Z,5.35
2018-04-22T04:42:52.948Z,9.40
2018-04-22T04:45:21.296Z,9.73
2018-04-22T04:47:49.633Z,10.93
2018-04-22T04:50:17.990Z,4.35
2018-04-22T04:52:46.321Z,13.68
2018-04-22T04:55:14.675Z,9.48
2018-04-22T04:57:42.999Z,6.50
2018-04-22T05:00:11.370Z,8.73
2018-04-22T05:02:39.707Z,10.93
2018-04-22T05:05:08.061Z,9.45
2018-04-22T05:07:36.389Z,9.98
2018-04-22T05:10:04.746Z,8.05
2018-04-22T05:12:33.072Z,10.38
2018-04-22T05:15:01.427Z,9.45
2018-04-22T05:17:29.756Z,10.77
2018-04-22T05:19:58.113Z,5.72
2018-04-22T05:22:26.445Z,11.55
2018-04-22T05:24:54.801Z,8.82
2018-04-22T05:27:23.142Z,20.35
2018-04-22T05:29:51.506Z,13.70
2018-04-22T05:32:19.844Z,9.63
2018-04-22T05:34:48.197Z,7.85
2018-04-22T05:37:16.533Z,14.40
2018-04-22T05:39:44.892Z,7.75
2018-04-22T05:42:13.226Z,8.57
2018-04-22T05:44:41.574Z,8.23
2018-04-22T05:47:09.914Z,11.43
2018-04-22T05:49:38.276Z,5.18
2018-04-22T05:52:06.604Z,8.43
2018-04-22T05:54:34.971Z,11.07
2018-04-22T05:57:03.359Z,7.97
2018-04-22T05:59:31.717Z,7.47
2018-04-22T06:02:00.053Z,8.13
2018-04-22T06:04:28.410Z,8.10
2018-04-22T06:06:56.751Z,9.82
2018-04-22T06:09:25.104Z,6.22
2018-04-22T06:11:53.448Z,10.10
2018-04-22T06:14:21.825Z,6.25
2018-04-22T06:16:50.149Z,8.80
2018-04-22T06:19:18.485Z,9.70
2018-04-22T06:21:46.829Z,9.80
2018-04-22T06:24:15.157Z,12.00
2018-04-22T06:26:43.514Z,8.27
2018-04-22T06:29:11.842Z,11.93
2018-04-22T06:31:40.190Z,9.60
2018-04-22T06:34:08.525Z,10.73
2018-04-22T06:36:36.877Z,14.80
2018-04-22T06:39:05.238Z,10.20
2018-04-22T06:41:33.584Z,12.63
2018-04-22T06:44:01.920Z,14.17
2018-04-22T06:46:30.268Z,10.60
2018-04-22T06:48:58.612Z,10.83
2018-04-22T06:51:26.965Z,10.13
2018-04-22T06:53:55.294Z,11.30
2018-04-22T06:56:23.650Z,12.70
2018-04-22T06:58:52.058Z,12.70
2018-04-22T07:01:20.340Z,16.73
2018-04-22T07:03:48.665Z,9.07
2018-04-22T07:06:17.010Z,9.90
2018-04-22T07:08:45.338Z,23.70
2018-04-22T07:11:13.688Z,10.97
2018-04-22T07:13:42.024Z,24.80
2018-04-22T07:16:10.374Z,18.77
2018-04-22T07:18:38.705Z,17.47
2018-04-22T07:21:07.060Z,14.10
2018-04-22T07:23:35.390Z,14.80
2018-04-22T07:26:03.736Z,17.40
2018-04-22T07:28:32.069Z,14.33
2018-04-22T07:31:00.421Z,21.10
2018-04-22T07:33:28.752Z,11.03
2018-04-22T07:35:57.111Z,16.60
2018-04-22T07:38:25.442Z,15.50
2018-04-22T07:40:53.793Z,15.90
2018-04-22T07:43:22.125Z,15.97
2018-04-22T07:45:50.473Z,13.00
2018-04-22T07:48:18.810Z,18.10
2018-04-22T07:50:47.160Z,13.93
2018-04-22T07:53:15.489Z,13.30
2018-04-22T07:55:43.845Z,32.23
2018-04-22T07:58:12.172Z,13.23
2018-04-22T08:00:40.528Z,13.60
2018-04-22T08:03:08.856Z,15.20
2018-04-22T08:05:37.210Z,16.20
2018-04-22T08:08:05.545Z,15.47
2018-04-22T08:10:33.892Z,22.97
2018-04-22T08:13:02.226Z,16.90
2018-04-22T08:15:30.576Z,19.73
2018-04-22T08:17:58.938Z,12.13
2018-04-22T08:20:27.272Z,29.67
2018-04-22T08:22:55.628Z,16.80
2018-04-22T08:25:23.964Z,21.52
2018-04-22T08:27:52.313Z,14.37
2018-04-22T08:30:20.645Z,15.27
2018-04-22T08:32:48.996Z,16.70
2018-04-22T08:35:17.325Z,12.40
2018-04-22T08:37:45.683Z,24.83
2018-04-22T08:40:14.009Z,16.50
2018-04-22T08:42:42.365Z,18.30
2018-04-22T08:45:10.700Z,24.47
2018-04-22T08:47:39.060Z,17.70
2018-04-22T08:50:07.393Z,29.40
2018-04-22T08:52:35.744Z,19.42
2018-04-22T08:55:04.081Z,14.50
2018-04-22T08:57:33.412Z,23.83
2018-04-22T09:00:01.753Z,23.60
2018-04-22T09:04:16.346Z,23.93
2018-04-22T09:06:45.651Z,25.23
2018-04-22T09:09:14.301Z,17.58
2018-04-22T09:11:42.658Z,29.27
2018-04-22T09:14:10.997Z,18.83
2018-04-22T09:16:39.356Z,25.33
2018-04-22T09:19:07.689Z,21.23
2018-04-22T09:21:36.044Z,31.00
2018-04-22T09:24:04.381Z,17.92
2018-04-22T09:26:32.736Z,17.67
2018-04-22T09:29:01.065Z,19.85
2018-04-22T09:31:29.412Z,21.17
2018-04-22T09:33:57.772Z,20.45
2018-04-22T09:36:26.131Z,21.00
2018-04-22T09:38:54.460Z,18.65
2018-04-22T09:41:22.820Z,15.50
2018-04-22T09:43:51.157Z,21.00
2018-04-22T09:46:19.493Z,14.75
2018-04-22T09:48:47.892Z,16.70
2018-04-22T09:51:16.232Z,22.77
2018-04-22T09:53:44.592Z,20.80
2018-04-22T09:56:12.928Z,18.42
2018-04-22T09:58:41.283Z,18.40
2018-04-22T10:01:09.625Z,15.73
2018-04-22T10:03:37.985Z,22.13
2018-04-22T10:06:06.324Z,15.20
2018-04-22T10:08:34.675Z,21.77
2018-04-22T10:11:03.009Z,26.20
2018-04-22T10:13:31.364Z,25.77
2018-04-22T10:15:59.701Z,18.57
2018-04-22T10:18:28.064Z,24.10
2018-04-22T10:20:56.391Z,27.13
2018-04-22T10:23:25.432Z,24.53
2018-04-22T10:25:53.769Z,16.60
2018-04-22T10:28:22.124Z,26.60
2018-04-22T10:30:50.460Z,25.40
2018-04-22T10:33:18.820Z,25.40
2018-04-22T10:35:47.156Z,27.33
2018-04-22T10:38:15.517Z,21.40
2018-04-22T10:40:43.854Z,34.00
2018-04-22T10:43:12.209Z,19.17
2018-04-22T10:45:40.544Z,27.50
2018-04-22T10:48:09.841Z,20.57
2018-04-22T10:50:38.171Z,18.37
2018-04-22T10:53:06.532Z,26.30
2018-04-22T10:55:34.869Z,23.17
2018-04-22T10:58:03.305Z,24.03
2018-04-22T11:00:31.560Z,21.90
2018-04-22T11:02:59.924Z,31.17
2018-04-22T11:05:28.256Z,30.60
2018-04-22T11:07:56.608Z,21.10
2018-04-22T11:10:24.952Z,21.77
2018-04-22T11:12:53.308Z,22.33
2018-04-22T11:15:21.645Z,23.13
2018-04-22T11:17:50.240Z,27.55
2018-04-22T11:20:18.578Z,25.80
2018-04-22T11:22:46.972Z,21.87
2018-04-22T11:25:15.296Z,27.10
2018-04-22T11:27:44.593Z,23.17
2018-04-22T11:30:12.948Z,22.00
2018-04-22T11:32:41.319Z,25.05
2018-04-22T11:35:09.689Z,27.33
2018-04-22T11:37:39.273Z,31.43
2018-04-22T11:40:07.611Z,26.93
2018-04-22T11:42:36.032Z,27.80
2018-04-22T11:45:04.353Z,25.63
2018-04-22T11:47:32.716Z,23.07
2018-04-22T11:50:01.140Z,27.10
2018-04-22T11:52:29.476Z,28.12
2018-04-22T11:54:57.836Z,30.25
2018-04-22T11:57:26.173Z,25.53
2018-04-22T11:59:54.574Z,26.10
2018-04-22T12:02:22.906Z,25.10
2018-04-22T12:04:51.225Z,22.60
2018-04-22T12:07:20.548Z,37.47
2018-04-22T12:09:48.985Z,24.05
2018-04-22T12:12:17.316Z,29.20
2018-04-22T12:14:45.711Z,27.03
2018-04-22T12:17:14.053Z,21.62
2018-04-22T12:19:43.373Z,29.40
2018-04-22T12:22:11.709Z,22.17
2018-04-22T12:24:40.072Z,27.50
2018-04-22T12:27:09.304Z,24.67
2018-04-22T12:29:37.660Z,22.90
2018-04-22T12:32:05.996Z,20.60
2018-04-22T12:34:34.352Z,28.73
2018-04-22T12:37:02.691Z,23.90
2018-04-22T12:39:31.056Z,23.30
2018-04-22T12:41:59.387Z,23.57
2018-04-22T12:44:27.754Z,30.70
2018-04-22T12:46:57.046Z,17.23
2018-04-22T12:49:25.404Z,24.43
2018-04-22T12:51:53.740Z,21.67
2018-04-22T12:54:22.103Z,26.73
2018-04-22T12:56:50.444Z,22.97
2018-04-22T12:59:19.387Z,18.20
2018-04-22T13:01:47.676Z,23.33
2018-04-22T13:04:16.100Z,19.20
2018-04-22T13:06:44.452Z,17.90
2018-04-22T13:09:12.813Z,17.30
2018-04-22T13:11:41.144Z,27.23
2018-04-22T13:14:09.521Z,17.50
2018-04-22T13:16:39.065Z,21.63
2018-04-22T13:19:08.100Z,16.63
2018-04-22T13:21:36.457Z,19.10
2018-04-22T13:24:04.820Z,17.57
2018-04-22T13:26:33.157Z,19.60
2018-04-22T13:29:01.516Z,19.33
2018-04-22T13:31:29.856Z,22.98
2018-04-22T13:33:58.434Z,38.57
2018-04-22T13:36:26.780Z,16.50
2018-04-22T13:38:56.185Z,13.57
2018-04-22T13:41:24.476Z,19.00
2018-04-22T13:43:52.841Z,23.90
2018-04-22T13:46:21.177Z,14.40
2018-04-22T13:48:49.541Z,15.55
2018-04-22T13:51:17.888Z,22.90
2018-04-22T13:53:46.240Z,30.73
2018-04-22T13:56:14.597Z,27.73
2018-04-22T13:58:43.656Z,17.10
2018-04-22T14:01:12.017Z,25.57
2018-04-22T14:03:40.344Z,14.03
2018-04-22T14:06:08.714Z,30.98
2018-04-22T14:08:37.073Z,22.30
2018-04-22T14:11:05.432Z,19.17
2018-04-22T14:13:33.765Z,15.67
2018-04-22T14:16:02.134Z,13.83
2018-04-22T14:18:30.492Z,25.03
2018-04-22T14:20:58.860Z,12.10
2018-04-22T14:23:27.192Z,14.37
2018-04-22T14:25:55.546Z,13.00
2018-04-22T14:28:23.881Z,25.05
2018-04-22T14:30:52.237Z,20.47
2018-04-22T14:33:20.567Z,14.37
2018-04-22T14:35:48.917Z,18.73
2018-04-22T14:38:17.249Z,18.17
2018-04-22T14:40:45.596Z,9.00
2018-04-22T14:43:13.929Z,10.93
2018-04-22T14:45:53.996Z,28.25
2018-04-22T14:48:22.341Z,18.27
2018-04-22T14:50:50.705Z,25.27
2018-04-22T14:53:19.034Z,10.50
2018-04-22T14:55:47.398Z,12.00
2018-04-22T14:58:15.730Z,21.23
2018-04-22T15:00:44.098Z,20.55
2018-04-22T15:03:12.451Z,13.73
2018-04-22T15:05:40.807Z,11.67
2018-04-22T15:08:09.152Z,18.33
2018-04-22T15:10:37.504Z,19.57
2018-04-22T15:13:05.841Z,13.20
2018-04-22T15:15:34.205Z,15.77
2018-04-22T15:18:02.540Z,20.70
2018-04-22T15:20:30.897Z,13.90
2018-04-22T15:22:59.229Z,13.20
2018-04-22T15:25:27.597Z,20.47
2018-04-22T15:27:55.937Z,16.90
2018-04-22T15:30:24.301Z,46.23
2018-04-22T15:32:52.645Z,12.03
2018-04-22T15:35:20.989Z,11.52
2018-04-22T15:37:49.333Z,14.97
2018-04-22T15:40:18.633Z,17.15
2018-04-22T15:42:47.007Z,14.02
2018-04-22T15:45:15.324Z,16.80
2018-04-22T15:47:43.652Z,16.77
2018-04-22T15:50:12.018Z,16.57
2018-04-22T15:52:40.353Z,12.90
2018-04-22T15:55:08.714Z,16.77
2018-04-22T15:57:37.046Z,14.87
2018-04-22T16:00:05.396Z,12.87
2018-04-22T16:02:33.725Z,22.13
2018-04-22T16:05:02.077Z,23.00
2018-04-22T16:07:30.434Z,13.93
2018-04-22T16:09:58.769Z,23.63
2018-04-22T16:12:27.126Z,14.70
2018-04-22T16:14:55.462Z,17.83
2018-04-22T16:17:23.813Z,13.37
2018-04-22T16:19:52.150Z,19.67
2018-04-22T16:22:21.397Z,16.30
2018-04-22T16:24:49.732Z,16.60
2018-04-22T16:27:19.046Z,19.83
2018-04-22T16:29:47.367Z,22.20
2018-04-22T16:32:15.731Z,12.77
2018-04-22T16:34:44.061Z,11.75
2018-04-22T16:37:13.348Z,13.75
2018-04-22T16:39:41.684Z,14.80
2018-04-22T16:42:10.037Z,10.67
2018-04-22T16:44:38.367Z,12.40
2018-04-22T16:47:06.731Z,15.80
2018-04-22T16:49:35.053Z,19.27
2018-04-22T16:52:03.409Z,14.30
2018-04-22T16:54:31.746Z,18.00
2018-04-22T16:57:00.097Z,16.43
2018-04-22T16:59:28.428Z,22.37
2018-04-22T17:01:56.800Z,8.67
2018-04-22T17:04:25.135Z,11.00
2018-04-22T17:06:54.392Z,8.20
2018-04-22T17:09:22.716Z,4.73
2018-04-22T17:11:51.060Z,14.00
2018-04-22T17:14:19.393Z,13.50
2018-04-22T17:16:48.709Z,6.93
2018-04-22T17:19:17.036Z,21.20
2018-04-22T17:21:45.381Z,5.72
2018-04-22T17:24:13.724Z,8.43
2018-04-22T17:26:43.052Z,5.83
2018-04-22T17:29:11.362Z,4.40
2018-04-22T17:31:39.704Z,6.73
2018-04-22T17:34:08.037Z,5.03
2018-04-22T17:36:36.379Z,4.87
2018-04-22T17:39:04.701Z,8.23
2018-04-22T17:41:33.052Z,7.65
2018-04-22T17:44:01.381Z,4.03
2018-04-22T17:46:30.668Z,9.75
2018-04-22T17:48:58.994Z,2.20
2018-04-22T17:51:27.364Z,5.40
2018-04-22T17:53:55.697Z,2.73
2018-04-22T17:56:24.045Z,4.57
2018-04-22T17:58:52.368Z,4.60
2018-04-22T18:01:20.716Z,3.33
2018-04-22T18:03:49.056Z,5.30
2018-04-22T18:06:17.460Z,4.47
2018-04-22T18:08:45.813Z,3.17
2018-04-22T18:11:14.134Z,3.70
2018-04-22T18:13:42.485Z,4.62
2018-04-22T18:16:10.813Z,6.10
2018-04-22T18:18:39.163Z,6.80
2018-04-22T18:21:07.480Z,6.17
2018-04-22T18:23:35.829Z,6.50
2018-04-22T18:26:04.157Z,5.90
2018-04-22T18:28:32.500Z,4.10
2018-04-22T18:31:00.829Z,4.70
2018-04-22T18:33:29.172Z,4.20
2018-04-22T18:35:57.497Z,5.80
2018-04-22T18:38:25.928Z,11.37
2018-04-22T18:40:54.396Z,4.07
2018-04-22T18:43:22.744Z,2.55
2018-04-22T18:45:51.069Z,4.53
2018-04-22T18:48:19.413Z,9.10
2018-04-22T18:50:47.732Z,5.67
2018-04-22T18:53:16.081Z,2.00
2018-04-22T18:55:44.404Z,3.67
2018-04-22T18:58:12.752Z,6.73
2018-04-22T19:00:41.729Z,4.93
2018-04-22T19:03:10.077Z,2.40
2018-04-22T19:05:38.401Z,2.77
2018-04-22T19:08:06.752Z,4.80
2018-04-22T19:10:35.074Z,9.70
2018-04-22T19:13:03.424Z,8.30
2018-04-22T19:15:31.753Z,9.25
2018-04-22T19:18:00.096Z,6.60
2018-04-22T19:20:28.430Z,3.10
2018-04-22T19:22:56.784Z,8.53
2018-04-22T19:25:25.102Z,6.60
2018-04-22T19:27:53.449Z,4.10
2018-04-22T19:30:21.780Z,2.70
2018-04-22T19:32:50.121Z,4.20
2018-04-22T19:35:18.453Z,7.65
2018-04-22T19:37:46.806Z,6.03
2018-04-22T19:40:15.476Z,5.50
2018-04-22T19:42:43.768Z,7.50
2018-04-22T19:45:12.093Z,14.03
2018-04-22T19:47:40.441Z,4.43
2018-04-22T19:50:09.587Z,4.45
2018-04-22T19:52:37.936Z,10.82
2018-04-22T19:55:06.389Z,9.93
2018-04-22T19:57:35.675Z,8.40
2018-04-22T20:00:04.015Z,8.10
2018-04-22T20:02:32.354Z,4.87
2018-04-22T20:05:00.684Z,7.07
2018-04-22T20:07:29.027Z,3.95
2018-04-22T20:09:57.396Z,4.50
2018-04-22T20:12:25.756Z,2.53
2018-04-22T20:14:54.085Z,15.07
2018-04-22T20:17:22.425Z,8.47
2018-04-22T20:19:51.773Z,8.73
2018-04-22T20:22:20.096Z,24.47
2018-04-22T20:24:48.555Z,38.60
2018-04-22T20:27:16.885Z,6.67
2018-04-22T20:29:45.223Z,8.87
2018-04-22T20:32:13.548Z,7.30
2018-04-22T20:34:41.891Z,8.40
2018-04-22T20:37:10.212Z,6.67
2018-04-22T20:39:39.617Z,12.32
2018-04-22T20:42:07.944Z,14.77
2018-04-22T20:44:36.296Z,10.87
2018-04-22T20:47:04.633Z,10.73
2018-04-22T20:49:32.978Z,7.93
2018-04-22T20:52:01.304Z,8.52
2018-04-22T20:54:29.648Z,4.73
2018-04-22T20:56:57.973Z,9.77
2018-04-22T20:59:26.312Z,8.47
2018-04-22T21:01:54.636Z,9.83
2018-04-22T21:04:22.980Z,6.80
2018-04-22T21:06:51.312Z,10.30
2018-04-22T21:09:19.660Z,5.93
2018-04-22T21:11:47.984Z,5.47
2018-04-22T21:14:16.337Z,5.53
2018-04-22T21:16:44.666Z,8.63
2018-04-22T21:19:13.939Z,8.57
2018-04-22T21:21:42.264Z,6.90
2018-04-22T21:24:10.610Z,6.57
2018-04-22T21:26:39.833Z,11.80
2018-04-22T21:29:08.176Z,9.27
2018-04-22T21:31:36.507Z,7.90
2018-04-22T21:34:04.853Z,6.27
2018-04-22T21:36:33.176Z,4.40
2018-04-22T21:39:01.580Z,9.10
2018-04-22T21:41:29.896Z,5.97
2018-04-22T21:43:58.239Z,23.07
2018-04-22T21:46:26.925Z,10.90
2018-04-22T21:48:55.260Z,13.13
2018-04-22T21:51:23.597Z,10.10
2018-04-22T21:53:51.950Z,8.50
2018-04-22T21:56:20.276Z,7.50
2018-04-22T21:58:49.323Z,13.40
2018-04-22T22:01:17.648Z,6.83
2018-04-22T22:03:45.992Z,9.83
2018-04-22T22:06:14.319Z,7.63
2018-04-22T22:08:42.657Z,8.97
2018-04-22T22:11:10.983Z,12.07
2018-04-22T22:13:39.326Z,7.00
2018-04-22T22:16:07.640Z,5.43
2018-04-22T22:18:35.998Z,7.70
2018-04-22T22:21:04.320Z,9.17
2018-04-22T22:23:32.632Z,4.57
2018-04-22T22:26:00.981Z,5.10
2018-04-22T22:28:29.296Z,5.00
2018-04-22T22:30:57.632Z,9.60
2018-04-22T22:33:25.950Z,8.00
2018-04-22T22:35:54.291Z,6.83
2018-04-22T22:38:22.609Z,8.37
2018-04-22T22:40:50.953Z,9.03
2018-04-22T22:43:19.279Z,12.20
2018-04-22T22:45:47.629Z,11.80
2018-04-22T22:48:15.950Z,6.40
2018-04-22T22:50:44.288Z,7.60
2018-04-22T22:53:12.617Z,8.27
2018-04-22T22:55:40.949Z,8.00
2018-04-22T22:58:09.269Z,6.93
2018-04-22T23:00:37.616Z,11.57
2018-04-22T23:03:05.939Z,21.13
2018-04-22T23:05:34.283Z,21.50
2018-04-22T23:08:02.608Z,15.30
2018-04-22T23:10:30.961Z,11.00
2018-04-22T23:12:59.280Z,8.97
2018-04-22T23:15:27.624Z,13.13
2018-04-22T23:17:55.952Z,20.27
2018-04-22T23:20:24.287Z,7.37
2018-04-22T23:22:52.615Z,10.83
2018-04-22T23:25:20.967Z,9.57
2018-04-22T23:27:49.289Z,14.10
2018-04-22T23:30:17.628Z,12.97
2018-04-22T23:32:45.952Z,18.70
2018-04-22T23:35:14.301Z,8.57
2018-04-22T23:37:42.633Z,11.47
2018-04-22T23:40:10.968Z,15.80
2018-04-22T23:42:39.288Z,12.27
2018-04-22T23:45:07.632Z,19.43
2018-04-22T23:47:35.956Z,15.23
2018-04-22T23:50:04.299Z,13.97
2018-04-22T23:52:32.624Z,12.87
2018-04-22T23:55:00.972Z,17.00
2018-04-22T23:57:29.301Z,13.40
2018-04-22T23:59:57.653Z,16.93
